sensor_id;sensor_type;location;lat;lon;timestamp;P1;durP1;ratioP1;P2;durP2;ratioP2
15077;SDS011;7638;49.760;8.646;2023-05-07T00:05:24;3.40;;;2.00;;
15077;SDS011;7638;49.760;8.646;2023-05-07T00:07:50;3.27;;;1.60;;
15077;SDS011;7638;49.760;8.646;2023-05-07T00:10:17;1.80;;;1.60;;
15077;SDS011;7638;49.760;8.646;2023-05-07T00:12:43;1.90;;;1.50;;
15077;SDS011;7638;49.760;8.646;2023-05-07T00:15:10;5.20;;;2.17;;
15077;SDS011;7638;49.760;8.646;2023-05-07T00:17:36;3.13;;;1.80;;
15077;SDS011;7638;49.760;8.646;2023-05-07T00:20:02;2.23;;;1.93;;
15077;SDS011;7638;49.760;8.646;2023-05-07T00:22:28;3.37;;;2.07;;
15077;SDS011;7638;49.760;8.646;2023-05-07T00:24:55;2.03;;;1.80;;
15077;SDS011;7638;49.760;8.646;2023-05-07T00:27:22;6.00;;;1.97;;
15077;SDS011;7638;49.760;8.646;2023-05-07T00:29:48;3.70;;;1.70;;
15077;SDS011;7638;49.760;8.646;2023-05-07T00:35:17;3.20;;;1.97;;
15077;SDS011;7638;49.760;8.646;2023-05-07T00:37:43;5.07;;;2.17;;
15077;SDS011;7638;49.760;8.646;2023-05-07T00:40:09;3.50;;;1.93;;
15077;SDS011;7638;49.760;8.646;2023-05-07T00:42:36;3.33;;;1.83;;
15077;SDS011;7638;49.760;8.646;2023-05-07T00:45:02;2.73;;;2.03;;
15077;SDS011;7638;49.760;8.646;2023-05-07T00:47:28;4.67;;;2.00;;
15077;SDS011;7638;49.760;8.646;2023-05-07T00:49:54;1.90;;;1.57;;
15077;SDS011;7638;49.760;8.646;2023-05-07T00:52:20;2.47;;;1.90;;
15077;SDS011;7638;49.760;8.646;2023-05-07T00:54:46;4.07;;;1.90;;
15077;SDS011;7638;49.760;8.646;2023-05-07T00:57:12;3.23;;;2.30;;
15077;SDS011;7638;49.760;8.646;2023-05-07T00:59:38;2.37;;;1.80;;
15077;SDS011;7638;49.760;8.646;2023-05-07T01:02:05;2.90;;;1.70;;
15077;SDS011;7638;49.760;8.646;2023-05-07T01:04:31;2.87;;;1.80;;
15077;SDS011;7638;49.760;8.646;2023-05-07T01:06:57;4.17;;;1.80;;
15077;SDS011;7638;49.760;8.646;2023-05-07T01:09:24;2.60;;;1.90;;
15077;SDS011;7638;49.760;8.646;2023-05-07T01:11:51;5.87;;;1.80;;
15077;SDS011;7638;49.760;8.646;2023-05-07T01:14:17;2.93;;;1.70;;
15077;SDS011;7638;49.760;8.646;2023-05-07T01:16:44;3.93;;;1.63;;
15077;SDS011;7638;49.760;8.646;2023-05-07T01:19:11;3.37;;;1.67;;
15077;SDS011;7638;49.760;8.646;2023-05-07T01:21:39;2.90;;;1.73;;
15077;SDS011;7638;49.760;8.646;2023-05-07T01:24:09;4.13;;;1.40;;
15077;SDS011;7638;49.760;8.646;2023-05-07T01:26:36;2.13;;;1.80;;
15077;SDS011;7638;49.760;8.646;2023-05-07T01:29:02;2.93;;;1.50;;
15077;SDS011;7638;49.760;8.646;2023-05-07T01:31:28;1.23;;;1.13;;
15077;SDS011;7638;49.760;8.646;2023-05-07T01:33:54;1.93;;;1.20;;
15077;SDS011;7638;49.760;8.646;2023-05-07T01:36:21;2.10;;;1.73;;
15077;SDS011;7638;49.760;8.646;2023-05-07T01:38:50;1.70;;;1.60;;
15077;SDS011;7638;49.760;8.646;2023-05-07T01:41:17;3.97;;;1.43;;
15077;SDS011;7638;49.760;8.646;2023-05-07T01:43:43;1.33;;;1.23;;
15077;SDS011;7638;49.760;8.646;2023-05-07T01:46:10;4.80;;;1.70;;
15077;SDS011;7638;49.760;8.646;2023-05-07T01:48:37;5.00;;;1.70;;
15077;SDS011;7638;49.760;8.646;2023-05-07T01:51:03;3.10;;;1.57;;
15077;SDS011;7638;49.760;8.646;2023-05-07T01:53:35;1.80;;;1.60;;
15077;SDS011;7638;49.760;8.646;2023-05-07T01:56:01;2.03;;;1.63;;
15077;SDS011;7638;49.760;8.646;2023-05-07T01:58:27;3.03;;;1.57;;
15077;SDS011;7638;49.760;8.646;2023-05-07T02:00:53;1.40;;;1.20;;
15077;SDS011;7638;49.760;8.646;2023-05-07T02:03:19;2.03;;;1.30;;
15077;SDS011;7638;49.760;8.646;2023-05-07T02:05:46;2.13;;;1.27;;
15077;SDS011;7638;49.760;8.646;2023-05-07T02:08:12;2.50;;;1.50;;
15077;SDS011;7638;49.760;8.646;2023-05-07T02:10:38;2.50;;;1.27;;
15077;SDS011;7638;49.760;8.646;2023-05-07T02:13:04;5.13;;;1.30;;
15077;SDS011;7638;49.760;8.646;2023-05-07T02:15:30;1.70;;;1.37;;
15077;SDS011;7638;49.760;8.646;2023-05-07T02:20:28;1.97;;;1.20;;
15077;SDS011;7638;49.760;8.646;2023-05-07T02:22:54;3.20;;;1.30;;
15077;SDS011;7638;49.760;8.646;2023-05-07T02:25:20;3.47;;;1.33;;
15077;SDS011;7638;49.760;8.646;2023-05-07T02:27:46;1.47;;;1.20;;
15077;SDS011;7638;49.760;8.646;2023-05-07T02:30:13;1.63;;;1.20;;
15077;SDS011;7638;49.760;8.646;2023-05-07T02:35:43;1.43;;;1.33;;
15077;SDS011;7638;49.760;8.646;2023-05-07T02:38:09;1.23;;;1.03;;
15077;SDS011;7638;49.760;8.646;2023-05-07T02:40:36;1.97;;;1.30;;
15077;SDS011;7638;49.760;8.646;2023-05-07T02:43:04;0.80;;;0.80;;
15077;SDS011;7638;49.760;8.646;2023-05-07T02:45:30;1.43;;;1.20;;
15077;SDS011;7638;49.760;8.646;2023-05-07T02:47:57;1.30;;;1.20;;
15077;SDS011;7638;49.760;8.646;2023-05-07T02:50:23;4.93;;;1.03;;
15077;SDS011;7638;49.760;8.646;2023-05-07T02:52:49;1.03;;;1.00;;
15077;SDS011;7638;49.760;8.646;2023-05-07T02:55:15;1.20;;;1.10;;
15077;SDS011;7638;49.760;8.646;2023-05-07T02:57:41;3.40;;;1.67;;
15077;SDS011;7638;49.760;8.646;2023-05-07T03:00:11;1.37;;;0.97;;
15077;SDS011;7638;49.760;8.646;2023-05-07T03:05:41;1.30;;;1.20;;
15077;SDS011;7638;49.760;8.646;2023-05-07T03:08:07;4.80;;;1.13;;
15077;SDS011;7638;49.760;8.646;2023-05-07T03:10:33;1.40;;;1.20;;
15077;SDS011;7638;49.760;8.646;2023-05-07T03:13:00;3.37;;;1.20;;
15077;SDS011;7638;49.760;8.646;2023-05-07T03:15:26;4.23;;;1.37;;
15077;SDS011;7638;49.760;8.646;2023-05-07T03:17:52;2.30;;;1.10;;
15077;SDS011;7638;49.760;8.646;2023-05-07T03:20:18;1.63;;;0.93;;
15077;SDS011;7638;49.760;8.646;2023-05-07T03:22:44;1.27;;;1.13;;
15077;SDS011;7638;49.760;8.646;2023-05-07T03:25:10;1.40;;;1.30;;
15077;SDS011;7638;49.760;8.646;2023-05-07T03:27:36;3.17;;;1.07;;
15077;SDS011;7638;49.760;8.646;2023-05-07T03:30:03;4.50;;;1.33;;
15077;SDS011;7638;49.760;8.646;2023-05-07T03:35:32;2.00;;;1.03;;
15077;SDS011;7638;49.760;8.646;2023-05-07T03:37:58;1.83;;;1.50;;
15077;SDS011;7638;49.760;8.646;2023-05-07T03:40:24;3.73;;;1.40;;
15077;SDS011;7638;49.760;8.646;2023-05-07T03:42:50;1.20;;;1.10;;
15077;SDS011;7638;49.760;8.646;2023-05-07T03:45:16;1.80;;;1.30;;
15077;SDS011;7638;49.760;8.646;2023-05-07T03:47:42;3.07;;;1.20;;
15077;SDS011;7638;49.760;8.646;2023-05-07T03:50:08;1.30;;;1.20;;
15077;SDS011;7638;49.760;8.646;2023-05-07T03:52:35;2.10;;;1.20;;
15077;SDS011;7638;49.760;8.646;2023-05-07T03:55:01;4.37;;;1.30;;
15077;SDS011;7638;49.760;8.646;2023-05-07T03:57:27;1.97;;;1.43;;
15077;SDS011;7638;49.760;8.646;2023-05-07T03:59:53;1.70;;;1.40;;
15077;SDS011;7638;49.760;8.646;2023-05-07T04:05:23;5.20;;;1.60;;
15077;SDS011;7638;49.760;8.646;2023-05-07T04:07:49;2.80;;;1.23;;
15077;SDS011;7638;49.760;8.646;2023-05-07T04:10:15;7.83;;;1.53;;
15077;SDS011;7638;49.760;8.646;2023-05-07T04:12:41;1.50;;;1.37;;
15077;SDS011;7638;49.760;8.646;2023-05-07T04:15:07;1.87;;;1.30;;
15077;SDS011;7638;49.760;8.646;2023-05-07T04:17:33;1.43;;;1.20;;
15077;SDS011;7638;49.760;8.646;2023-05-07T04:19:59;1.27;;;1.17;;
15077;SDS011;7638;49.760;8.646;2023-05-07T04:22:25;1.80;;;1.30;;
15077;SDS011;7638;49.760;8.646;2023-05-07T04:24:51;2.10;;;1.10;;
15077;SDS011;7638;49.760;8.646;2023-05-07T04:27:17;8.73;;;1.20;;
15077;SDS011;7638;49.760;8.646;2023-05-07T04:29:43;1.10;;;1.00;;
15077;SDS011;7638;49.760;8.646;2023-05-07T04:35:15;1.70;;;1.07;;
15077;SDS011;7638;49.760;8.646;2023-05-07T04:37:42;2.33;;;1.03;;
15077;SDS011;7638;49.760;8.646;2023-05-07T04:40:08;1.13;;;1.03;;
15077;SDS011;7638;49.760;8.646;2023-05-07T04:42:34;4.23;;;1.70;;
15077;SDS011;7638;49.760;8.646;2023-05-07T04:45:01;1.40;;;1.30;;
15077;SDS011;7638;49.760;8.646;2023-05-07T04:47:27;1.43;;;1.20;;
15077;SDS011;7638;49.760;8.646;2023-05-07T04:49:53;4.00;;;1.40;;
15077;SDS011;7638;49.760;8.646;2023-05-07T04:52:19;1.53;;;1.10;;
15077;SDS011;7638;49.760;8.646;2023-05-07T04:54:45;1.23;;;1.13;;
15077;SDS011;7638;49.760;8.646;2023-05-07T04:57:11;1.27;;;1.17;;
15077;SDS011;7638;49.760;8.646;2023-05-07T04:59:37;1.50;;;1.10;;
15077;SDS011;7638;49.760;8.646;2023-05-07T05:02:03;3.23;;;1.20;;
15077;SDS011;7638;49.760;8.646;2023-05-07T05:04:29;3.70;;;1.47;;
15077;SDS011;7638;49.760;8.646;2023-05-07T05:06:55;1.30;;;1.20;;
15077;SDS011;7638;49.760;8.646;2023-05-07T05:09:21;2.53;;;1.30;;
15077;SDS011;7638;49.760;8.646;2023-05-07T05:11:47;2.03;;;1.27;;
15077;SDS011;7638;49.760;8.646;2023-05-07T05:14:13;2.73;;;1.57;;
15077;SDS011;7638;49.760;8.646;2023-05-07T05:16:39;1.47;;;1.13;;
15077;SDS011;7638;49.760;8.646;2023-05-07T05:19:05;4.03;;;1.40;;
15077;SDS011;7638;49.760;8.646;2023-05-07T05:21:31;2.17;;;1.73;;
15077;SDS011;7638;49.760;8.646;2023-05-07T05:23:57;1.93;;;1.70;;
15077;SDS011;7638;49.760;8.646;2023-05-07T05:26:23;2.30;;;1.30;;
15077;SDS011;7638;49.760;8.646;2023-05-07T05:28:49;3.97;;;1.43;;
15077;SDS011;7638;49.760;8.646;2023-05-07T05:31:16;1.97;;;1.63;;
15077;SDS011;7638;49.760;8.646;2023-05-07T05:33:42;2.47;;;2.03;;
15077;SDS011;7638;49.760;8.646;2023-05-07T05:36:11;3.33;;;2.10;;
15077;SDS011;7638;49.760;8.646;2023-05-07T05:38:38;3.80;;;2.40;;
15077;SDS011;7638;49.760;8.646;2023-05-07T05:41:05;3.23;;;2.17;;
15077;SDS011;7638;49.760;8.646;2023-05-07T05:43:31;2.17;;;1.83;;
15077;SDS011;7638;49.760;8.646;2023-05-07T05:45:57;3.80;;;2.20;;
15077;SDS011;7638;49.760;8.646;2023-05-07T05:48:23;6.37;;;2.80;;
15077;SDS011;7638;49.760;8.646;2023-05-07T05:50:49;4.20;;;2.17;;
15077;SDS011;7638;49.760;8.646;2023-05-07T05:53:15;3.60;;;1.90;;
15077;SDS011;7638;49.760;8.646;2023-05-07T05:55:41;5.10;;;1.53;;
15077;SDS011;7638;49.760;8.646;2023-05-07T05:58:08;1.63;;;1.20;;
15077;SDS011;7638;49.760;8.646;2023-05-07T06:00:34;3.37;;;2.07;;
15077;SDS011;7638;49.760;8.646;2023-05-07T06:03:00;2.40;;;2.03;;
15077;SDS011;7638;49.760;8.646;2023-05-07T06:05:26;3.17;;;2.23;;
15077;SDS011;7638;49.760;8.646;2023-05-07T06:07:52;3.07;;;1.73;;
15077;SDS011;7638;49.760;8.646;2023-05-07T06:10:18;5.70;;;2.00;;
15077;SDS011;7638;49.760;8.646;2023-05-07T06:12:44;2.37;;;1.87;;
15077;SDS011;7638;49.760;8.646;2023-05-07T06:15:10;4.60;;;2.23;;
15077;SDS011;7638;49.760;8.646;2023-05-07T06:17:37;5.13;;;2.03;;
15077;SDS011;7638;49.760;8.646;2023-05-07T06:20:03;4.47;;;1.90;;
15077;SDS011;7638;49.760;8.646;2023-05-07T06:22:29;1.97;;;1.43;;
15077;SDS011;7638;49.760;8.646;2023-05-07T06:24:55;4.07;;;2.03;;
15077;SDS011;7638;49.760;8.646;2023-05-07T06:27:21;2.30;;;1.97;;
15077;SDS011;7638;49.760;8.646;2023-05-07T06:29:47;3.53;;;1.70;;
15077;SDS011;7638;49.760;8.646;2023-05-07T06:35:17;4.50;;;1.87;;
15077;SDS011;7638;49.760;8.646;2023-05-07T06:37:43;6.73;;;1.67;;
15077;SDS011;7638;49.760;8.646;2023-05-07T06:40:09;1.47;;;1.27;;
15077;SDS011;7638;49.760;8.646;2023-05-07T06:42:36;1.20;;;1.10;;
15077;SDS011;7638;49.760;8.646;2023-05-07T06:45:02;6.27;;;1.50;;
15077;SDS011;7638;49.760;8.646;2023-05-07T06:47:28;2.43;;;1.63;;
15077;SDS011;7638;49.760;8.646;2023-05-07T06:49:54;3.63;;;1.90;;
15077;SDS011;7638;49.760;8.646;2023-05-07T06:52:20;3.30;;;1.87;;
15077;SDS011;7638;49.760;8.646;2023-05-07T06:54:46;1.83;;;1.70;;
15077;SDS011;7638;49.760;8.646;2023-05-07T06:57:12;2.13;;;1.40;;
15077;SDS011;7638;49.760;8.646;2023-05-07T06:59:38;2.60;;;1.97;;
15077;SDS011;7638;49.760;8.646;2023-05-07T07:05:07;2.30;;;1.40;;
15077;SDS011;7638;49.760;8.646;2023-05-07T07:07:34;1.97;;;1.47;;
15077;SDS011;7638;49.760;8.646;2023-05-07T07:10:00;2.27;;;1.30;;
15077;SDS011;7638;49.760;8.646;2023-05-07T07:12:26;2.57;;;1.47;;
15077;SDS011;7638;49.760;8.646;2023-05-07T07:14:53;2.47;;;1.50;;
15077;SDS011;7638;49.760;8.646;2023-05-07T07:17:20;2.57;;;2.00;;
15077;SDS011;7638;49.760;8.646;2023-05-07T07:19:46;4.40;;;1.63;;
15077;SDS011;7638;49.760;8.646;2023-05-07T07:22:12;3.10;;;1.43;;
15077;SDS011;7638;49.760;8.646;2023-05-07T07:24:38;2.73;;;1.50;;
15077;SDS011;7638;49.760;8.646;2023-05-07T07:27:04;2.03;;;1.40;;
15077;SDS011;7638;49.760;8.646;2023-05-07T07:29:30;2.30;;;1.53;;
15077;SDS011;7638;49.760;8.646;2023-05-07T07:32:09;6.63;;;2.00;;
15077;SDS011;7638;49.760;8.646;2023-05-07T07:34:35;3.63;;;1.40;;
15077;SDS011;7638;49.760;8.646;2023-05-07T07:37:01;2.27;;;1.67;;
15077;SDS011;7638;49.760;8.646;2023-05-07T07:39:34;1.63;;;1.40;;
15077;SDS011;7638;49.760;8.646;2023-05-07T07:42:02;2.13;;;1.57;;
15077;SDS011;7638;49.760;8.646;2023-05-07T07:44:28;2.10;;;1.77;;
15077;SDS011;7638;49.760;8.646;2023-05-07T07:46:54;1.70;;;1.50;;
15077;SDS011;7638;49.760;8.646;2023-05-07T07:49:20;9.93;;;2.00;;
15077;SDS011;7638;49.760;8.646;2023-05-07T07:51:46;2.10;;;1.30;;
15077;SDS011;7638;49.760;8.646;2023-05-07T07:54:12;2.20;;;1.53;;
15077;SDS011;7638;49.760;8.646;2023-05-07T07:56:38;2.47;;;2.17;;
15077;SDS011;7638;49.760;8.646;2023-05-07T07:59:04;2.83;;;2.10;;
15077;SDS011;7638;49.760;8.646;2023-05-07T08:07:37;3.40;;;1.90;;
15077;SDS011;7638;49.760;8.646;2023-05-07T08:10:03;1.77;;;1.57;;
15077;SDS011;7638;49.760;8.646;2023-05-07T08:12:29;1.47;;;1.37;;
15077;SDS011;7638;49.760;8.646;2023-05-07T08:14:55;2.67;;;1.40;;
15077;SDS011;7638;49.760;8.646;2023-05-07T08:17:21;2.10;;;1.43;;
15077;SDS011;7638;49.760;8.646;2023-05-07T08:19:47;2.00;;;1.73;;
15077;SDS011;7638;49.760;8.646;2023-05-07T08:22:13;2.90;;;1.90;;
15077;SDS011;7638;49.760;8.646;2023-05-07T08:24:40;2.20;;;1.70;;
15077;SDS011;7638;49.760;8.646;2023-05-07T08:27:06;1.93;;;1.73;;
15077;SDS011;7638;49.760;8.646;2023-05-07T08:29:32;2.67;;;1.57;;
15077;SDS011;7638;49.760;8.646;2023-05-07T08:31:58;3.20;;;1.80;;
15077;SDS011;7638;49.760;8.646;2023-05-07T08:34:24;1.87;;;1.53;;
15077;SDS011;7638;49.760;8.646;2023-05-07T08:36:50;2.70;;;2.07;;
15077;SDS011;7638;49.760;8.646;2023-05-07T08:39:16;2.23;;;2.03;;
15077;SDS011;7638;49.760;8.646;2023-05-07T08:41:45;2.07;;;1.80;;
15077;SDS011;7638;49.760;8.646;2023-05-07T08:44:12;3.53;;;1.77;;
15077;SDS011;7638;49.760;8.646;2023-05-07T08:46:39;3.10;;;2.00;;
15077;SDS011;7638;49.760;8.646;2023-05-07T08:49:05;2.80;;;1.87;;
15077;SDS011;7638;49.760;8.646;2023-05-07T08:51:31;3.33;;;2.03;;
15077;SDS011;7638;49.760;8.646;2023-05-07T08:53:57;2.40;;;1.87;;
15077;SDS011;7638;49.760;8.646;2023-05-07T08:56:23;2.37;;;1.80;;
15077;SDS011;7638;49.760;8.646;2023-05-07T08:58:50;2.30;;;1.90;;
15077;SDS011;7638;49.760;8.646;2023-05-07T09:04:19;3.37;;;1.83;;
15077;SDS011;7638;49.760;8.646;2023-05-07T09:06:45;3.73;;;2.07;;
15077;SDS011;7638;49.760;8.646;2023-05-07T09:09:14;3.20;;;1.87;;
15077;SDS011;7638;49.760;8.646;2023-05-07T09:11:40;4.10;;;1.93;;
15077;SDS011;7638;49.760;8.646;2023-05-07T09:14:06;1.73;;;1.50;;
15077;SDS011;7638;49.760;8.646;2023-05-07T09:16:32;2.83;;;1.90;;
15077;SDS011;7638;49.760;8.646;2023-05-07T09:18:59;1.80;;;1.70;;
15077;SDS011;7638;49.760;8.646;2023-05-07T09:24:01;2.90;;;1.90;;
15077;SDS011;7638;49.760;8.646;2023-05-07T09:26:27;2.40;;;2.20;;
15077;SDS011;7638;49.760;8.646;2023-05-07T09:28:53;2.93;;;2.07;;
15077;SDS011;7638;49.760;8.646;2023-05-07T09:31:19;4.67;;;1.93;;
15077;SDS011;7638;49.760;8.646;2023-05-07T09:33:48;2.60;;;2.30;;
15077;SDS011;7638;49.760;8.646;2023-05-07T09:36:14;2.43;;;2.23;;
15077;SDS011;7638;49.760;8.646;2023-05-07T09:38:40;2.20;;;2.00;;
15077;SDS011;7638;49.760;8.646;2023-05-07T09:41:12;4.13;;;2.10;;
15077;SDS011;7638;49.760;8.646;2023-05-07T09:43:39;2.93;;;2.63;;
15077;SDS011;7638;49.760;8.646;2023-05-07T09:46:06;2.20;;;2.00;;
15077;SDS011;7638;49.760;8.646;2023-05-07T09:48:36;5.33;;;1.83;;
15077;SDS011;7638;49.760;8.646;2023-05-07T09:51:04;6.80;;;2.30;;
15077;SDS011;7638;49.760;8.646;2023-05-07T09:53:32;2.03;;;1.70;;
15077;SDS011;7638;49.760;8.646;2023-05-07T09:55:59;2.03;;;1.83;;
15077;SDS011;7638;49.760;8.646;2023-05-07T09:58:25;2.37;;;2.00;;
15077;SDS011;7638;49.760;8.646;2023-05-07T10:00:59;3.27;;;1.90;;
15077;SDS011;7638;49.760;8.646;2023-05-07T10:03:26;2.97;;;1.90;;
15077;SDS011;7638;49.760;8.646;2023-05-07T10:05:53;2.03;;;1.93;;
15077;SDS011;7638;49.760;8.646;2023-05-07T10:08:19;1.90;;;1.57;;
15077;SDS011;7638;49.760;8.646;2023-05-07T10:10:46;2.30;;;1.97;;
15077;SDS011;7638;49.760;8.646;2023-05-07T10:13:12;2.30;;;2.10;;
15077;SDS011;7638;49.760;8.646;2023-05-07T10:15:38;2.20;;;2.00;;
15077;SDS011;7638;49.760;8.646;2023-05-07T10:18:04;4.03;;;2.30;;
15077;SDS011;7638;49.760;8.646;2023-05-07T10:20:32;3.77;;;2.00;;
15077;SDS011;7638;49.760;8.646;2023-05-07T10:22:59;3.47;;;2.23;;
15077;SDS011;7638;49.760;8.646;2023-05-07T10:25:29;5.03;;;2.40;;
15077;SDS011;7638;49.760;8.646;2023-05-07T10:27:57;3.43;;;2.30;;
15077;SDS011;7638;49.760;8.646;2023-05-07T10:32:52;3.70;;;2.00;;
15077;SDS011;7638;49.760;8.646;2023-05-07T10:35:23;2.30;;;1.83;;
15077;SDS011;7638;49.760;8.646;2023-05-07T10:37:50;2.50;;;2.00;;
15077;SDS011;7638;49.760;8.646;2023-05-07T10:40:17;3.27;;;2.40;;
15077;SDS011;7638;49.760;8.646;2023-05-07T10:42:57;2.40;;;2.20;;
15077;SDS011;7638;49.760;8.646;2023-05-07T10:45:27;2.50;;;2.20;;
15077;SDS011;7638;49.760;8.646;2023-05-07T10:50:39;4.30;;;2.23;;
15077;SDS011;7638;49.760;8.646;2023-05-07T10:53:26;2.50;;;2.30;;
15077;SDS011;7638;49.760;8.646;2023-05-07T10:58:38;3.33;;;2.20;;
15077;SDS011;7638;49.760;8.646;2023-05-07T11:01:04;4.93;;;2.40;;
15077;SDS011;7638;49.760;8.646;2023-05-07T11:03:30;4.37;;;2.37;;
15077;SDS011;7638;49.760;8.646;2023-05-07T11:06:17;3.90;;;2.40;;
15077;SDS011;7638;49.760;8.646;2023-05-07T11:11:17;2.37;;;2.17;;
15077;SDS011;7638;49.760;8.646;2023-05-07T11:13:45;3.30;;;2.33;;
15077;SDS011;7638;49.760;8.646;2023-05-07T11:16:18;5.90;;;3.17;;
15077;SDS011;7638;49.760;8.646;2023-05-07T11:18:48;2.30;;;2.10;;
15077;SDS011;7638;49.760;8.646;2023-05-07T11:24:13;3.10;;;2.37;;
15077;SDS011;7638;49.760;8.646;2023-05-07T11:29:11;2.50;;;2.20;;
15077;SDS011;7638;49.760;8.646;2023-05-07T11:31:37;3.40;;;3.00;;
15077;SDS011;7638;49.760;8.646;2023-05-07T11:34:03;3.60;;;2.30;;
15077;SDS011;7638;49.760;8.646;2023-05-07T11:36:30;2.63;;;2.43;;
15077;SDS011;7638;49.760;8.646;2023-05-07T11:38:57;3.10;;;2.57;;
15077;SDS011;7638;49.760;8.646;2023-05-07T11:41:32;3.67;;;2.70;;
15077;SDS011;7638;49.760;8.646;2023-05-07T11:43:59;2.43;;;2.13;;
15077;SDS011;7638;49.760;8.646;2023-05-07T11:46:26;4.00;;;2.87;;
15077;SDS011;7638;49.760;8.646;2023-05-07T11:48:52;3.47;;;2.43;;
15077;SDS011;7638;49.760;8.646;2023-05-07T11:51:18;2.50;;;2.30;;
15077;SDS011;7638;49.760;8.646;2023-05-07T11:53:44;2.43;;;2.10;;
15077;SDS011;7638;49.760;8.646;2023-05-07T11:56:12;3.70;;;2.60;;
15077;SDS011;7638;49.760;8.646;2023-05-07T11:58:38;2.40;;;2.20;;
15077;SDS011;7638;49.760;8.646;2023-05-07T12:01:04;2.63;;;2.43;;
15077;SDS011;7638;49.760;8.646;2023-05-07T12:03:30;3.17;;;2.87;;
15077;SDS011;7638;49.760;8.646;2023-05-07T12:05:56;2.43;;;2.23;;
15077;SDS011;7638;49.760;8.646;2023-05-07T12:08:22;2.37;;;2.17;;
15077;SDS011;7638;49.760;8.646;2023-05-07T12:10:49;4.40;;;2.60;;
15077;SDS011;7638;49.760;8.646;2023-05-07T12:13:15;4.47;;;2.63;;
15077;SDS011;7638;49.760;8.646;2023-05-07T12:15:42;2.83;;;2.20;;
15077;SDS011;7638;49.760;8.646;2023-05-07T12:18:08;2.50;;;2.30;;
15077;SDS011;7638;49.760;8.646;2023-05-07T12:20:34;2.60;;;2.20;;
15077;SDS011;7638;49.760;8.646;2023-05-07T12:23:01;2.17;;;1.97;;
15077;SDS011;7638;49.760;8.646;2023-05-07T12:25:29;2.67;;;2.47;;
15077;SDS011;7638;49.760;8.646;2023-05-07T12:27:56;3.27;;;2.40;;
15077;SDS011;7638;49.760;8.646;2023-05-07T12:30:23;2.10;;;2.00;;
15077;SDS011;7638;49.760;8.646;2023-05-07T12:32:52;2.40;;;1.97;;
15077;SDS011;7638;49.760;8.646;2023-05-07T12:35:25;4.37;;;2.23;;
15077;SDS011;7638;49.760;8.646;2023-05-07T12:37:55;2.67;;;2.20;;
15077;SDS011;7638;49.760;8.646;2023-05-07T12:40:21;2.53;;;2.23;;
15077;SDS011;7638;49.760;8.646;2023-05-07T12:42:47;3.20;;;1.93;;
15077;SDS011;7638;49.760;8.646;2023-05-07T12:45:19;3.43;;;2.50;;
15077;SDS011;7638;49.760;8.646;2023-05-07T12:47:45;2.20;;;2.00;;
15077;SDS011;7638;49.760;8.646;2023-05-07T12:50:12;2.30;;;2.10;;
15077;SDS011;7638;49.760;8.646;2023-05-07T12:52:39;3.20;;;2.10;;
15077;SDS011;7638;49.760;8.646;2023-05-07T12:55:05;4.43;;;2.03;;
15077;SDS011;7638;49.760;8.646;2023-05-07T12:57:37;2.20;;;1.97;;
15077;SDS011;7638;49.760;8.646;2023-05-07T13:00:03;2.60;;;2.17;;
15077;SDS011;7638;49.760;8.646;2023-05-07T13:05:34;2.47;;;2.23;;
15077;SDS011;7638;49.760;8.646;2023-05-07T13:08:00;1.97;;;1.83;;
15077;SDS011;7638;49.760;8.646;2023-05-07T13:10:26;2.00;;;1.80;;
15077;SDS011;7638;49.760;8.646;2023-05-07T13:12:52;2.60;;;2.40;;
15077;SDS011;7638;49.760;8.646;2023-05-07T13:15:18;2.83;;;2.03;;
15077;SDS011;7638;49.760;8.646;2023-05-07T13:17:44;4.60;;;2.07;;
15077;SDS011;7638;49.760;8.646;2023-05-07T13:20:11;1.93;;;1.83;;
15077;SDS011;7638;49.760;8.646;2023-05-07T13:22:40;2.47;;;2.23;;
15077;SDS011;7638;49.760;8.646;2023-05-07T13:25:06;3.90;;;1.87;;
15077;SDS011;7638;49.760;8.646;2023-05-07T13:27:32;2.30;;;1.90;;
15077;SDS011;7638;49.760;8.646;2023-05-07T13:30:01;3.03;;;2.20;;
15077;SDS011;7638;49.760;8.646;2023-05-07T13:35:31;2.53;;;2.10;;
15077;SDS011;7638;49.760;8.646;2023-05-07T13:37:57;2.70;;;2.50;;
15077;SDS011;7638;49.760;8.646;2023-05-07T13:40:23;6.53;;;2.13;;
15077;SDS011;7638;49.760;8.646;2023-05-07T13:42:49;2.40;;;2.20;;
15077;SDS011;7638;49.760;8.646;2023-05-07T13:45:15;3.80;;;1.90;;
15077;SDS011;7638;49.760;8.646;2023-05-07T13:47:41;2.30;;;2.10;;
15077;SDS011;7638;49.760;8.646;2023-05-07T13:50:10;2.93;;;2.43;;
15077;SDS011;7638;49.760;8.646;2023-05-07T13:52:37;3.27;;;2.20;;
15077;SDS011;7638;49.760;8.646;2023-05-07T13:55:05;2.43;;;2.23;;
15077;SDS011;7638;49.760;8.646;2023-05-07T13:57:31;4.63;;;2.23;;
15077;SDS011;7638;49.760;8.646;2023-05-07T13:59:57;2.97;;;2.30;;
15077;SDS011;7638;49.760;8.646;2023-05-07T14:05:26;2.23;;;2.03;;
15077;SDS011;7638;49.760;8.646;2023-05-07T14:07:53;3.70;;;2.10;;
15077;SDS011;7638;49.760;8.646;2023-05-07T14:10:19;2.47;;;2.27;;
15077;SDS011;7638;49.760;8.646;2023-05-07T14:12:45;2.57;;;1.97;;
15077;SDS011;7638;49.760;8.646;2023-05-07T14:15:11;4.83;;;2.27;;
15077;SDS011;7638;49.760;8.646;2023-05-07T14:17:37;2.43;;;2.23;;
15077;SDS011;7638;49.760;8.646;2023-05-07T14:20:03;2.23;;;2.03;;
15077;SDS011;7638;49.760;8.646;2023-05-07T14:22:31;2.07;;;1.87;;
15077;SDS011;7638;49.760;8.646;2023-05-07T14:24:57;2.50;;;1.90;;
15077;SDS011;7638;49.760;8.646;2023-05-07T14:27:23;3.50;;;2.47;;
15077;SDS011;7638;49.760;8.646;2023-05-07T14:29:49;2.57;;;2.00;;
15077;SDS011;7638;49.760;8.646;2023-05-07T14:35:19;2.70;;;2.40;;
15077;SDS011;7638;49.760;8.646;2023-05-07T14:37:45;6.33;;;2.53;;
15077;SDS011;7638;49.760;8.646;2023-05-07T14:40:11;3.67;;;2.27;;
15077;SDS011;7638;49.760;8.646;2023-05-07T14:42:37;3.10;;;2.43;;
15077;SDS011;7638;49.760;8.646;2023-05-07T14:45:03;2.30;;;2.10;;
15077;SDS011;7638;49.760;8.646;2023-05-07T14:47:29;4.80;;;2.53;;
15077;SDS011;7638;49.760;8.646;2023-05-07T14:49:55;2.50;;;2.17;;
15077;SDS011;7638;49.760;8.646;2023-05-07T14:52:22;2.67;;;2.47;;
15077;SDS011;7638;49.760;8.646;2023-05-07T14:54:48;2.10;;;1.90;;
15077;SDS011;7638;49.760;8.646;2023-05-07T14:57:14;2.20;;;2.00;;
15077;SDS011;7638;49.760;8.646;2023-05-07T14:59:44;3.93;;;2.53;;
15077;SDS011;7638;49.760;8.646;2023-05-07T15:05:14;2.40;;;2.20;;
15077;SDS011;7638;49.760;8.646;2023-05-07T15:07:40;3.57;;;2.00;;
15077;SDS011;7638;49.760;8.646;2023-05-07T15:10:06;4.00;;;2.07;;
15077;SDS011;7638;49.760;8.646;2023-05-07T15:12:32;3.93;;;2.40;;
15077;SDS011;7638;49.760;8.646;2023-05-07T15:14:58;3.43;;;2.50;;
15077;SDS011;7638;49.760;8.646;2023-05-07T15:17:24;3.73;;;2.07;;
15077;SDS011;7638;49.760;8.646;2023-05-07T15:19:50;3.20;;;2.07;;
15077;SDS011;7638;49.760;8.646;2023-05-07T15:22:16;2.50;;;2.13;;
15077;SDS011;7638;49.760;8.646;2023-05-07T15:24:42;2.80;;;2.60;;
15077;SDS011;7638;49.760;8.646;2023-05-07T15:27:09;3.13;;;2.40;;
15077;SDS011;7638;49.760;8.646;2023-05-07T15:29:35;3.23;;;2.93;;
15077;SDS011;7638;49.760;8.646;2023-05-07T15:32:05;2.23;;;2.00;;
15077;SDS011;7638;49.760;8.646;2023-05-07T15:34:31;2.23;;;1.93;;
15077;SDS011;7638;49.760;8.646;2023-05-07T15:36:57;8.17;;;2.20;;
15077;SDS011;7638;49.760;8.646;2023-05-07T15:39:23;7.70;;;2.23;;
15077;SDS011;7638;49.760;8.646;2023-05-07T15:41:49;5.50;;;1.60;;
15077;SDS011;7638;49.760;8.646;2023-05-07T15:44:15;3.67;;;1.70;;
15077;SDS011;7638;49.760;8.646;2023-05-07T15:46:41;6.57;;;1.37;;
15077;SDS011;7638;49.760;8.646;2023-05-07T15:49:07;3.23;;;1.87;;
15077;SDS011;7638;49.760;8.646;2023-05-07T15:51:34;2.57;;;1.50;;
15077;SDS011;7638;49.760;8.646;2023-05-07T15:54:00;4.63;;;1.60;;
15077;SDS011;7638;49.760;8.646;2023-05-07T15:56:26;3.90;;;1.83;;
15077;SDS011;7638;49.760;8.646;2023-05-07T15:58:52;5.03;;;2.33;;
15077;SDS011;7638;49.760;8.646;2023-05-07T16:04:22;6.00;;;2.20;;
15077;SDS011;7638;49.760;8.646;2023-05-07T16:06:48;2.73;;;1.50;;
15077;SDS011;7638;49.760;8.646;2023-05-07T16:09:14;2.83;;;1.70;;
15077;SDS011;7638;49.760;8.646;2023-05-07T16:11:40;2.33;;;1.33;;
15077;SDS011;7638;49.760;8.646;2023-05-07T16:14:06;4.47;;;1.80;;